Time;durP1;ratioP1;P1;durP2;ratioP2;P2;SDS_P1;SDS_P2;PMS_P1;PMS_P2;Temp;Humidity;BMP_temperature;BMP_pressure;BME280_temperature;BME280_humidity;BME280_pressure;Samples;Min_cycle;Max_cycle;Signal;HPM_P1;HPM_P2
2021/11/05 00:01:32;;;;;;;8.60;1.92;;;7.10;99.90;;;;;;6213247;23;20090;-81
2021/11/05 00:03:57;;;;;;;12.88;2.10;;;7.10;99.90;;;;;;6215236;23;20088;-81
2021/11/05 00:06:24;;;;;;;9.00;2.38;;;7.20;99.90;;;;;;6188366;23;20107;-81
2021/11/05 00:08:50;;;;;;;7.60;2.17;;;7.20;99.90;;;;;;6191409;23;20009;-81
2021/11/05 00:11:15;;;;;;;11.10;2.35;;;7.20;99.90;;;;;;6190453;23;20040;-81
2021/11/05 00:13:41;;;;;;;7.00;2.22;;;7.20;99.90;;;;;;6187906;23;20016;-81
2021/11/05 00:16:06;;;;;;;10.20;2.90;;;7.10;99.90;;;;;;6188994;23;20383;-80
2021/11/05 00:18:32;;;;;;;12.32;3.05;;;7.00;99.90;;;;;;6188414;23;20020;-81
2021/11/05 00:20:58;;;;;;;9.75;2.75;;;7.10;99.90;;;;;;6188275;23;20067;-81
2021/11/05 00:23:23;;;;;;;8.82;2.40;;;7.10;99.90;;;;;;6188649;23;20057;-81
2021/11/05 00:25:49;;;;;;;13.38;3.17;;;7.10;99.90;;;;;;6188884;23;20043;-81
2021/11/05 00:28:15;;;;;;;20.77;3.25;;;7.20;99.90;;;;;;6213217;23;20012;-80
2021/11/05 00:30:41;;;;;;;9.70;2.90;;;7.00;99.90;;;;;;6188372;23;20028;-81
2021/11/05 00:33:07;;;;;;;9.80;2.97;;;7.10;99.90;;;;;;6188378;23;20437;-81
2021/11/05 00:35:32;;;;;;;7.22;3.35;;;7.00;99.90;;;;;;6188840;23;20075;-81
2021/11/05 00:37:58;;;;;;;9.98;4.00;;;7.00;99.90;;;;;;6163654;23;20019;-80
2021/11/05 00:40:28;;;;;;;12.35;4.38;;;7.00;99.90;;;;;;6188406;23;20015;-81
2021/11/05 00:42:54;;;;;;;15.05;4.03;;;6.90;99.90;;;;;;6163768;23;20020;-81
2021/11/05 00:45:20;;;;;;;9.48;3.42;;;6.90;99.90;;;;;;6187270;23;20005;-81
2021/11/05 00:47:46;;;;;;;9.10;3.13;;;6.80;99.90;;;;;;6163484;23;20015;-81
2021/11/05 00:50:11;;;;;;;10.45;3.25;;;6.80;99.90;;;;;;6162931;23;20013;-81
2021/11/05 00:52:37;;;;;;;11.32;3.40;;;6.70;99.90;;;;;;6187989;23;20044;-81
2021/11/05 00:55:03;;;;;;;15.75;3.63;;;6.70;99.90;;;;;;6213789;23;20017;-80
2021/11/05 00:57:29;;;;;;;11.38;3.42;;;6.70;99.90;;;;;;6191351;23;20065;-80
2021/11/05 00:59:55;;;;;;;14.00;3.97;;;6.70;99.90;;;;;;6241346;23;20000;-80
2021/11/05 01:02:20;;;;;;;8.00;3.10;;;6.70;99.90;;;;;;6216092;23;20066;-80
2021/11/05 01:04:46;;;;;;;15.18;3.30;;;6.60;99.90;;;;;;6242291;23;20008;-80
2021/11/05 01:07:12;;;;;;;8.32;3.03;;;6.50;99.90;;;;;;6200815;23;20020;-81
2021/11/05 01:09:37;;;;;;;9.00;3.30;;;6.50;99.90;;;;;;6191354;23;20040;-80
2021/11/05 01:12:04;;;;;;;9.85;2.92;;;6.50;99.90;;;;;;6188215;23;20452;-81
2021/11/05 01:14:29;;;;;;;7.53;2.88;;;6.40;99.90;;;;;;6187045;23;20094;-81
2021/11/05 01:16:55;;;;;;;7.50;2.92;;;6.30;99.90;;;;;;6213111;23;20084;-81
2021/11/05 01:19:21;;;;;;;11.82;3.42;;;6.20;99.90;;;;;;6162370;23;20040;-81
2021/11/05 01:21:46;;;;;;;8.45;2.80;;;6.20;99.90;;;;;;6187914;23;20070;-81
2021/11/05 01:24:12;;;;;;;7.13;3.20;;;6.10;99.90;;;;;;6188305;23;20008;-81
2021/11/05 01:26:38;;;;;;;11.25;3.83;;;6.20;99.90;;;;;;6217691;23;20019;-81
2021/11/05 01:29:03;;;;;;;9.70;3.50;;;6.10;99.90;;;;;;6215449;23;20020;-80
2021/11/05 01:31:29;;;;;;;10.30;3.55;;;6.00;99.90;;;;;;6215978;23;20087;-80
2021/11/05 01:33:55;;;;;;;9.27;3.35;;;6.00;99.90;;;;;;6190335;23;20012;-80
2021/11/05 01:36:21;;;;;;;6.93;3.10;;;5.90;99.90;;;;;;6215515;23;20024;-80
2021/11/05 01:38:46;;;;;;;12.27;3.45;;;5.90;99.90;;;;;;6211020;23;20090;-81
2021/11/05 01:41:12;;;;;;;9.32;3.78;;;5.90;99.90;;;;;;6191474;23;20083;-80
2021/11/05 01:43:38;;;;;;;11.40;3.50;;;5.90;99.90;;;;;;6189050;23;20023;-81
2021/11/05 01:46:08;;;;;;;10.02;4.03;;;5.90;99.90;;;;;;6188278;23;20017;-81
2021/11/05 01:48:36;;;;;;;9.38;3.38;;;5.80;99.90;;;;;;6187705;23;20012;-80
2021/11/05 01:51:01;;;;;;;10.82;3.55;;;5.80;99.90;;;;;;6187274;23;20332;-81
2021/11/05 01:53:27;;;;;;;15.52;4.05;;;5.80;99.90;;;;;;6186897;23;20087;-81
2021/11/05 01:55:53;;;;;;;16.95;4.15;;;5.80;99.90;;;;;;6187557;23;20353;-81
2021/11/05 01:58:20;;;;;;;11.57;3.60;;;5.90;99.90;;;;;;6186806;23;20021;-80
2021/11/05 02:00:46;;;;;;;10.13;4.03;;;5.80;99.90;;;;;;6187386;23;20023;-81
2021/11/05 02:03:12;;;;;;;10.20;3.60;;;5.80;99.90;;;;;;6187055;23;20012;-81
2021/11/05 02:09:33;;;;;;;19.02;4.13;;;5.90;99.90;;;;;;6155972;23;20028;-80
2021/11/05 02:20:51;;;;;;;13.75;3.35;;;5.70;99.90;;;;;;5922655;24;20061;-80
2021/11/05 02:24:03;;;;;;;11.52;3.78;;;5.80;99.90;;;;;;5899916;24;20433;-80
2021/11/05 02:27:18;;;;;;;13.60;3.97;;;5.60;99.90;;;;;;5923531;24;20055;-81
2021/11/05 02:30:07;;;;;;;13.82;3.85;;;5.80;99.90;;;;;;5918626;24;20013;-81
2021/11/05 02:33:06;;;;;;;16.52;3.45;;;5.40;99.90;;;;;;5900058;24;20026;-80
2021/11/05 02:36:26;;;;;;;11.90;3.38;;;6.40;99.90;;;;;;5950956;24;20024;-80
2021/11/05 02:42:45;;;;;;;8.13;3.10;;;5.70;99.90;;;;;;5872176;24;20022;-80
2021/11/05 02:45:38;;;;;;;14.25;3.45;;;5.70;99.90;;;;;;5870340;24;20566;-80
2021/11/05 02:48:49;;;;;;;8.45;3.08;;;5.80;99.90;;;;;;5869918;24;20055;-81
2021/11/05 02:51:43;;;;;;;9.52;2.85;;;5.80;99.90;;;;;;5835901;24;20068;-80
2021/11/05 02:58:00;;;;;;;8.30;3.15;;;5.70;99.90;;;;;;5892026;24;20014;-81
2021/11/05 03:00:58;;;;;;;6.32;2.80;;;6.00;99.90;;;;;;5846088;24;20015;-80
2021/11/05 03:03:44;;;;;;;7.95;2.60;;;6.10;99.90;;;;;;5865545;24;20100;-80
2021/11/05 03:10:29;;;;;;;12.93;3.10;;;5.80;99.90;;;;;;6209500;23;20077;-80
2021/11/05 03:17:31;;;;;;;11.43;2.53;;;6.00;99.90;;;;;;6106815;23;20029;-80
2021/11/05 03:20:55;;;;;;;;;;;;;;;;;;;;;
2021/11/05 03:24:01;;;;;;;11.68;2.22;;;7.00;99.90;;;;;;6008491;23;20023;-80
2021/11/05 03:26:26;;;;;;;8.85;2.10;;;6.50;99.90;;;;;;5985108;23;20161;-80
2021/11/05 03:28:52;;;;;;;8.43;2.33;;;6.70;99.90;;;;;;6007928;23;20429;-80
2021/11/05 03:31:18;;;;;;;10.63;2.38;;;6.80;99.90;;;;;;5984992;23;20437;-80
2021/11/05 03:33:44;;;;;;;15.13;2.65;;;6.80;99.90;;;;;;5984554;23;20121;-80
2021/11/05 03:36:22;;;;;;;13.45;2.50;;;6.80;99.90;;;;;;5985009;23;20022;-79
2021/11/05 03:38:48;;;;;;;8.50;2.42;;;6.80;99.90;;;;;;5984559;23;20026;-80
2021/11/05 03:41:14;;;;;;;8.43;2.42;;;6.70;99.90;;;;;;6008583;23;20020;-80
2021/11/05 03:43:40;;;;;;;16.75;2.33;;;6.80;99.90;;;;;;5983839;23;20350;-80
2021/11/05 03:46:06;;;;;;;20.02;2.40;;;6.70;99.90;;;;;;5984818;23;20098;-80
2021/11/05 03:48:35;;;;;;;8.07;1.85;;;6.60;99.90;;;;;;5984543;23;20027;-80
2021/11/05 03:51:02;;;;;;;8.82;2.17;;;6.60;99.90;;;;;;5985035;23;20075;-80
2021/11/05 03:53:28;;;;;;;9.45;2.10;;;6.60;99.90;;;;;;6053425;23;20283;-81
2021/11/05 03:55:54;;;;;;;10.02;2.22;;;6.60;99.90;;;;;;6099284;23;20022;-81
2021/11/05 03:58:19;;;;;;;15.10;2.40;;;6.70;99.90;;;;;;6147839;23;20012;-80
2021/11/05 04:00:45;;;;;;;13.57;2.13;;;6.70;99.90;;;;;;6218522;23;20179;-81
2021/11/05 04:03:11;;;;;;;8.65;1.88;;;6.70;99.90;;;;;;6192891;23;20016;-81
2021/11/05 04:09:38;;;;;;;;;;;6.80;99.90;;;;;;6262385;22;20024;-80
2021/11/05 04:13:31;;;;;;;8.32;1.88;;;6.80;99.90;;;;;;6242743;23;20335;-80
2021/11/05 04:24:56;;;;;;;;;;;;;;;;;;;;;
2021/11/05 04:30:47;;;;;;;;;;;;;;;;;;;;;
2021/11/05 04:58:18;;;;;;;9.73;2.00;;;5.90;99.90;;;;;;5109696;22;28558059;-80
2021/11/05 05:05:30;;;;;;;12.38;2.10;;;6.40;99.90;;;;;;6100266;23;20237;-80
2021/11/05 05:12:56;;;;;;;;;;;;;;;;;;;;;
2021/11/05 05:17:09;;;;;;;13.43;2.03;;;6.40;99.90;;;;;;5796351;24;20095;-80
2021/11/05 05:21:15;;;;;;;7.57;1.48;;;6.10;99.90;;;;;;5770197;24;20428;-80
2021/11/05 05:32:13;;;;;;;18.80;1.95;;;6.10;99.90;;;;;;5822838;24;20514;-81
2021/11/05 05:35:23;;;;;;;7.60;1.88;;;6.60;99.90;;;;;;5796174;24;20122;-80
2021/11/05 05:38:21;;;;;;;13.30;2.00;;;6.70;99.90;;;;;;5795895;24;20059;-80
2021/11/05 05:44:47;;;;;;;13.43;2.17;;;6.70;99.90;;;;;;5868565;24;20029;-80
2021/11/05 05:48:26;;;;;;;9.68;1.95;;;6.40;99.90;;;;;;5968807;23;20020;-80
2021/11/05 05:51:23;;;;;;;10.15;1.80;;;7.70;99.90;;;;;;6014609;23;20019;-80
2021/11/05 05:54:10;;;;;;;9.10;2.10;;;6.90;99.90;;;;;;6035237;23;20033;-80
2021/11/05 06:00:55;;;;;;;8.63;1.98;;;6.90;99.90;;;;;;6066307;23;20074;-81
2021/11/05 06:07:01;;;;;;;10.95;1.88;;;7.00;99.90;;;;;;6033971;23;20451;-81
2021/11/05 06:13:39;;;;;;;10.77;2.28;;;7.00;99.90;;;;;;6036354;23;20027;-81
2021/11/05 06:16:31;;;;;;;15.25;2.30;;;7.00;99.90;;;;;;5988469;23;20014;-81
2021/11/05 06:19:55;;;;;;;9.48;1.83;;;7.40;99.90;;;;;;6026558;23;20065;-81
2021/11/05 06:26:07;;;;;;;7.75;1.48;;;7.40;99.90;;;;;;6007041;23;20334;-81
2021/11/05 06:39:53;;;;;;;8.50;1.80;;;7.20;99.90;;;;;;5789054;24;20047;-81
2021/11/05 06:47:24;;;;;;;7.70;1.88;;;7.20;99.90;;;;;;5822154;24;20084;-81
2021/11/05 06:50:59;;;;;;;;;;;;;;;;;;;;;
2021/11/05 07:03:00;;;;;;;;;;;;;;;;;;;;;
2021/11/05 07:10:03;;;;;;;10.27;1.63;;;7.00;99.90;;;;;;6275403;22;19925;-81
2021/11/05 07:13:17;;;;;;;10.43;1.67;;;7.00;99.90;;;;;;6222244;22;20115;-80
2021/11/05 07:16:31;;;;;;;;;;;;;;;;;;;;;
2021/11/05 07:19:59;;;;;;;7.70;1.80;;;7.70;99.90;;;;;;6119347;23;20017;-80
2021/11/05 07:23:49;;;;;;;10.80;1.65;;;7.00;99.90;;;;;;5951067;24;20019;-80
2021/11/05 07:27:17;;;;;;;;;;;;;;;;;;;;;
2021/11/05 07:30:33;;;;;;;2.90;1.58;;;7.50;99.90;;;;;;5869588;24;20108;-80
2021/11/05 07:44:54;;;;;;;8.15;1.30;;;7.60;99.90;;;;;;5815156;24;20072;-80
2021/11/05 08:38:55;;;;;;;;;;;;;;;;;;;;;
2021/11/05 08:42:33;;;;;;;;;;;;;;;;;;;;;
2021/11/05 08:49:53;;;;;;;;;;;;;;;;;;;;;
2021/11/05 09:10:36;;;;;;;;;;;;;;;;;;;;;
2021/11/05 09:13:43;;;;;;;7.50;1.60;;;8.90;99.90;;;;;;6224907;23;20390;-80
2021/11/05 09:16:52;;;;;;;6.53;1.83;;;8.90;99.90;;;;;;6253046;23;20035;-81
2021/11/05 09:19:38;;;;;;;6.82;1.50;;;8.90;99.90;;;;;;6225514;23;20314;-81
2021/11/05 09:26:07;;;;;;;8.35;1.50;;;9.10;99.90;;;;;;6252755;23;19990;-81
2021/11/05 09:29:13;;;;;;;5.75;1.17;;;9.20;99.90;;;;;;6198968;23;20787;-79
2021/11/05 09:31:52;;;;;;;5.40;1.45;;;9.30;99.90;;;;;;6224618;23;20383;-80
2021/11/05 09:34:40;;;;;;;5.18;1.15;;;9.40;99.90;;;;;;6200981;23;20027;-80
2021/11/05 09:37:51;;;;;;;14.90;1.35;;;9.40;99.90;;;;;;6164312;23;20017;-80
2021/11/05 09:40:20;;;;;;;5.63;1.13;;;9.70;99.90;;;;;;6189130;23;20142;-79
2021/11/05 09:42:48;;;;;;;8.02;1.40;;;9.60;99.90;;;;;;6164326;23;20108;-79
2021/11/05 09:45:15;;;;;;;9.18;1.45;;;9.70;99.90;;;;;;6188098;23;20051;-80
2021/11/05 09:47:42;;;;;;;7.65;1.10;;;9.80;99.90;;;;;;6189118;23;20091;-80
2021/11/05 09:50:10;;;;;;;9.25;1.25;;;9.90;99.90;;;;;;6189076;23;20062;-79
2021/11/05 09:52:37;;;;;;;6.18;1.17;;;10.00;99.90;;;;;;6189078;23;20068;-80
2021/11/05 09:55:03;;;;;;;5.97;0.90;;;10.20;99.90;;;;;;6189218;23;20452;-80
2021/11/05 09:57:29;;;;;;;8.50;1.10;;;10.30;99.90;;;;;;6189044;23;20488;-81
2021/11/05 09:59:56;;;;;;;8.05;1.20;;;10.50;99.90;;;;;;6187963;23;20017;-80
2021/11/05 10:02:24;;;;;;;6.88;1.10;;;10.70;99.90;;;;;;6189119;23;20136;-80
2021/11/05 10:04:55;;;;;;;4.13;0.80;;;10.80;99.90;;;;;;6163654;23;20013;-79
2021/11/05 10:07:20;;;;;;;2.97;0.68;;;11.00;99.90;;;;;;6148637;23;20456;-81
2021/11/05 10:09:52;;;;;;;5.50;0.70;;;11.10;99.90;;;;;;6196329;23;20062;-80
2021/11/05 10:12:22;;;;;;;5.03;1.10;;;11.20;99.90;;;;;;6192870;23;20024;-80
2021/11/05 10:15:05;;;;;;;9.00;0.90;;;11.30;99.90;;;;;;6217507;23;20073;-80
2021/11/05 10:17:32;;;;;;;7.47;0.88;;;11.30;99.90;;;;;;6218444;23;20058;-79
2021/11/05 10:20:08;;;;;;;7.65;0.80;;;11.40;99.90;;;;;;6193456;23;20012;-79
2021/11/05 10:22:53;;;;;;;7.07;1.08;;;11.40;99.90;;;;;;6218412;23;20070;-79
2021/11/05 10:25:30;;;;;;;4.38;0.57;;;11.50;99.90;;;;;;6218205;23;20012;-80
2021/11/05 10:28:23;;;;;;;5.70;0.75;;;11.40;99.90;;;;;;6218493;23;20112;-80
2021/11/05 10:31:01;;;;;;;5.30;0.70;;;11.40;99.90;;;;;;6193357;23;20047;-80
2021/11/05 10:33:48;;;;;;;6.78;0.80;;;11.40;99.90;;;;;;6218544;23;20012;-80
2021/11/05 10:36:23;;;;;;;4.75;0.98;;;11.30;99.90;;;;;;6217757;23;20024;-80
2021/11/05 10:38:58;;;;;;;4.03;1.00;;;11.20;99.90;;;;;;6192842;23;20115;-79
2021/11/05 10:41:27;;;;;;;5.45;1.40;;;11.20;99.90;;;;;;6193182;23;20489;-81
2021/11/05 10:44:11;;;;;;;7.47;1.10;;;11.20;99.90;;;;;;6192289;23;20082;-80
2021/11/05 10:46:39;;;;;;;5.55;0.85;;;11.20;99.90;;;;;;6245439;23;20018;-79
2021/11/05 10:49:19;;;;;;;5.32;0.90;;;11.30;99.90;;;;;;6192952;23;20385;-80
2021/11/05 10:51:46;;;;;;;7.80;1.00;;;11.20;99.90;;;;;;6218078;23;20012;-79
2021/11/05 10:54:12;;;;;;;7.75;1.02;;;11.20;99.90;;;;;;6192855;23;20020;-79
2021/11/05 10:56:38;;;;;;;8.43;0.75;;;11.10;99.90;;;;;;6218117;23;20051;-80
2021/11/05 10:59:07;;;;;;;7.00;0.90;;;11.20;99.90;;;;;;6216895;23;20400;-80
2021/11/05 11:01:42;;;;;;;7.78;0.70;;;11.40;99.90;;;;;;6218192;23;20016;-79
2021/11/05 11:04:13;;;;;;;4.20;0.93;;;11.80;99.90;;;;;;6217720;22;20004;-81
2021/11/05 11:06:48;;;;;;;5.65;0.75;;;11.90;99.90;;;;;;6218183;23;20049;-80
2021/11/05 11:09:17;;;;;;;11.00;1.13;;;12.00;99.90;;;;;;6217426;23;20180;-80
2021/11/05 11:11:51;;;;;;;4.93;0.60;;;12.00;99.90;;;;;;6192635;23;20103;-81
2021/11/05 11:14:23;;;;;;;7.47;0.70;;;12.00;99.90;;;;;;6167057;23;20020;-79
2021/11/05 11:17:01;;;;;;;5.47;0.75;;;11.80;99.90;;;;;;6217991;23;20111;-79
2021/11/05 11:19:33;;;;;;;6.70;0.90;;;11.80;99.90;;;;;;6217615;23;20383;-81
2021/11/05 11:22:05;;;;;;;5.30;0.75;;;11.70;99.90;;;;;;6191891;23;20012;-81
2021/11/05 11:24:37;;;;;;;4.30;0.52;;;11.70;99.90;;;;;;6217451;23;20008;-79
2021/11/05 11:27:05;;;;;;;2.03;0.50;;;11.70;99.90;;;;;;6192931;23;20065;-79
2021/11/05 11:29:31;;;;;;;3.83;0.50;;;11.50;99.90;;;;;;6216927;23;20459;-81
2021/11/05 11:32:00;;;;;;;1.83;0.52;;;11.50;99.90;;;;;;6192280;23;20034;-80
2021/11/05 11:34:26;;;;;;;5.97;0.68;;;11.50;99.90;;;;;;6192320;23;20012;-80
2021/11/05 11:36:55;;;;;;;7.63;0.70;;;11.50;99.90;;;;;;6217596;23;20012;-81
2021/11/05 11:39:22;;;;;;;1.65;0.40;;;11.30;99.90;;;;;;6217340;23;20054;-81
2021/11/05 11:41:50;;;;;;;4.38;0.70;;;11.30;99.90;;;;;;6217595;23;20012;-81
2021/11/05 11:44:22;;;;;;;3.42;0.70;;;11.30;99.90;;;;;;6216599;23;20012;-79
2021/11/05 11:47:02;;;;;;;2.83;0.68;;;11.30;99.90;;;;;;6217237;23;20078;-81
2021/11/05 11:49:54;;;;;;;4.95;0.70;;;11.30;99.90;;;;;;6192271;23;20020;-81
2021/11/05 11:52:19;;;;;;;4.82;0.82;;;11.10;99.90;;;;;;6185784;23;20332;-80
2021/11/05 11:54:51;;;;;;;7.53;0.90;;;11.00;99.90;;;;;;6217427;23;20024;-80
2021/11/05 11:57:31;;;;;;;4.72;1.00;;;10.90;99.90;;;;;;6217671;23;20142;-80
2021/11/05 12:00:10;;;;;;;4.18;0.80;;;10.80;99.90;;;;;;6216383;23;20113;-80
2021/11/05 12:02:43;;;;;;;3.70;0.90;;;10.70;99.90;;;;;;6217190;23;20022;-80
2021/11/05 12:20:55;;;;;;;3.67;0.77;;;10.80;99.90;;;;;;5933354;24;20442;-80
2021/11/05 12:36:06;;;;;;;10.73;1.65;;;10.90;99.90;;;;;;5869013;24;20472;-80
2021/11/05 12:43:46;;;;;;;6.82;1.20;;;11.20;99.90;;;;;;5869083;24;20013;-80
2021/11/05 12:47:42;;;;;;;6.97;1.13;;;11.20;99.90;;;;;;5919047;24;20020;-80
2021/11/05 12:51:39;;;;;;;;;;;;;;;;;;;;;
2021/11/05 13:00:56;;;;;;;5.63;1.33;;;11.30;99.90;;;;;;5977359;24;19998;-79
2021/11/05 13:03:25;;;;;;;9.95;1.13;;;11.40;99.90;;;;;;5977367;23;20020;-78
2021/11/05 13:05:56;;;;;;;9.25;1.42;;;11.60;99.90;;;;;;5954766;23;20045;-80
2021/11/05 13:08:33;;;;;;;15.80;1.73;;;11.70;99.90;;;;;;5953180;24;20064;-82
2021/11/05 13:11:07;;;;;;;9.82;1.60;;;11.60;99.90;;;;;;5955077;24;20027;-79
2021/11/05 13:13:33;;;;;;;10.70;1.58;;;11.60;99.90;;;;;;5953762;24;20016;-80
2021/11/05 13:16:11;;;;;;;6.82;1.30;;;11.50;99.90;;;;;;5954828;24;20012;-76
2021/11/05 13:18:39;;;;;;;10.90;1.20;;;11.50;99.90;;;;;;5954712;24;20016;-80
2021/11/05 13:21:20;;;;;;;11.10;1.17;;;11.60;99.90;;;;;;5954937;24;20087;-80
2021/11/05 13:23:46;;;;;;;12.20;1.15;;;11.60;99.90;;;;;;6032186;23;20038;-80
2021/11/05 13:26:11;;;;;;;7.25;1.13;;;11.60;99.90;;;;;;6116855;23;20010;-80
2021/11/05 13:28:37;;;;;;;9.60;1.17;;;11.50;99.90;;;;;;6120142;23;20121;-80
2021/11/05 13:31:04;;;;;;;8.50;1.15;;;11.50;99.90;;;;;;6118455;23;20113;-80
2021/11/05 13:33:35;;;;;;;9.80;1.20;;;11.50;99.90;;;;;;6118686;23;20443;-78
2021/11/05 13:36:10;;;;;;;9.48;1.00;;;11.50;99.90;;;;;;6121227;23;20017;-79
2021/11/05 13:38:38;;;;;;;8.00;1.17;;;11.60;99.90;;;;;;6222054;23;20361;-78
2021/11/05 13:41:07;;;;;;;9.77;1.00;;;11.60;99.90;;;;;;6211751;23;20094;-78
2021/11/05 13:43:40;;;;;;;5.55;1.00;;;11.60;99.90;;;;;;6211963;23;20080;-78
2021/11/05 13:46:09;;;;;;;8.57;1.20;;;11.70;99.90;;;;;;6186931;23;20048;-78
2021/11/05 13:48:40;;;;;;;10.40;2.03;;;11.60;99.90;;;;;;6186505;23;20087;-80
2021/11/05 13:51:18;;;;;;;6.93;1.17;;;11.60;99.90;;;;;;6212013;23;20020;-79
2021/11/05 13:53:49;;;;;;;9.50;1.00;;;11.50;99.90;;;;;;6188192;23;20020;-80
2021/11/05 13:56:19;;;;;;;9.13;1.52;;;11.60;99.90;;;;;;6186825;23;20020;-79
2021/11/05 13:58:46;;;;;;;15.50;1.48;;;11.70;99.90;;;;;;6211684;23;20031;-80
2021/11/05 14:01:20;;;;;;;9.77;1.40;;;11.80;99.90;;;;;;6163142;23;20039;-79
2021/11/05 14:03:54;;;;;;;;;;;11.80;99.90;;;;;;6212793;23;20054;-80
2021/11/05 14:06:23;;;;;;;9.63;1.25;;;11.80;99.90;;;;;;6187812;23;20240;-80
2021/11/05 14:08:58;;;;;;;5.47;0.82;;;11.90;99.90;;;;;;6212819;23;20023;-81
2021/11/05 14:11:37;;;;;;;4.47;0.75;;;11.90;99.90;;;;;;6184759;23;20493;-79
2021/11/05 14:14:05;;;;;;;5.00;1.20;;;11.90;99.90;;;;;;6210251;23;20052;-79
2021/11/05 14:16:46;;;;;;;5.63;1.08;;;11.80;99.90;;;;;;6210995;23;20087;-77
2021/11/05 14:19:14;;;;;;;9.18;1.20;;;11.70;99.90;;;;;;6212893;23;20012;-78
2021/11/05 14:21:40;;;;;;;6.28;1.08;;;11.70;99.90;;;;;;6185737;23;20012;-77
2021/11/05 14:24:23;;;;;;;9.27;0.88;;;11.70;99.90;;;;;;6212649;23;20021;-77
2021/11/05 14:27:14;;;;;;;6.22;0.77;;;11.60;99.90;;;;;;6214415;23;20146;-78
2021/11/05 14:29:48;;;;;;;4.60;0.77;;;11.70;99.90;;;;;;6212293;23;20009;-77
2021/11/05 14:32:36;;;;;;;7.20;0.90;;;11.80;99.90;;;;;;6210765;23;20023;-80
2021/11/05 14:35:17;;;;;;;9.77;1.00;;;11.80;99.90;;;;;;6211213;23;20020;-79
2021/11/05 14:37:52;;;;;;;8.23;0.80;;;11.90;99.90;;;;;;6186804;23;20114;-80
2021/11/05 14:40:19;;;;;;;;;;;11.80;99.90;;;;;;6214460;23;20066;-79
2021/11/05 14:42:46;;;;;;;6.95;1.00;;;11.80;99.90;;;;;;6187339;23;19912;-79
2021/11/05 14:45:22;;;;;;;10.00;1.13;;;11.70;99.90;;;;;;6211098;23;20028;-82
2021/11/05 14:47:49;;;;;;;7.22;0.95;;;11.60;99.90;;;;;;6187263;23;20029;-78
2021/11/05 14:50:22;;;;;;;5.93;1.00;;;11.40;99.90;;;;;;6211069;23;20083;-77
2021/11/05 14:53:00;;;;;;;5.03;0.90;;;11.30;99.90;;;;;;6216264;23;20013;-77
2021/11/05 14:55:48;;;;;;;6.13;0.90;;;11.20;99.90;;;;;;6192637;23;20042;-78
2021/11/05 14:58:23;;;;;;;5.88;1.08;;;11.10;99.90;;;;;;6217770;23;20092;-77
2021/11/05 15:00:59;;;;;;;6.28;0.90;;;10.90;99.90;;;;;;6217190;23;20012;-77
2021/11/05 15:03:25;;;;;;;4.00;0.80;;;10.90;99.90;;;;;;6191823;23;20019;-78
2021/11/05 15:05:58;;;;;;;5.00;0.85;;;10.90;99.90;;;;;;6216052;23;20016;-77
2021/11/05 15:08:24;;;;;;;8.40;0.85;;;10.90;99.90;;;;;;6190999;23;20016;-76
2021/11/05 15:10:50;;;;;;;6.05;0.85;;;10.80;99.90;;;;;;6216634;23;20401;-78
2021/11/05 15:13:18;;;;;;;4.60;0.60;;;10.80;99.90;;;;;;6190729;23;20312;-76
2021/11/05 15:15:45;;;;;;;4.05;0.80;;;10.70;99.90;;;;;;6215412;23;20428;-74
2021/11/05 15:18:14;;;;;;;5.70;0.70;;;10.60;99.90;;;;;;6191583;23;20494;-78
2021/11/05 15:20:40;;;;;;;5.82;0.73;;;10.60;99.90;;;;;;6217318;23;20086;-78
2021/11/05 15:23:13;;;;;;;5.13;0.80;;;10.50;99.90;;;;;;6190609;23;20395;-80
2021/11/05 15:25:41;;;;;;;3.10;0.90;;;10.40;99.90;;;;;;6216646;23;20004;-78
2021/11/05 15:28:07;;;;;;;5.47;0.90;;;10.30;99.90;;;;;;6216531;23;20027;-81
2021/11/05 15:30:37;;;;;;;4.55;0.68;;;10.20;99.90;;;;;;6165633;23;20012;-82
2021/11/05 15:33:03;;;;;;;4.65;0.70;;;10.10;99.90;;;;;;6215779;23;20020;-78
2021/11/05 15:35:30;;;;;;;5.57;0.70;;;10.00;99.90;;;;;;6214641;23;20016;-77
2021/11/05 15:37:55;;;;;;;8.05;1.00;;;9.90;99.90;;;;;;6190318;23;20020;-80
2021/11/05 15:40:21;;;;;;;3.63;0.70;;;9.70;99.90;;;;;;6216316;23;20099;-77
2021/11/05 15:42:49;;;;;;;4.25;0.80;;;9.70;99.90;;;;;;6216913;23;20495;-80
2021/11/05 15:45:14;;;;;;;9.57;1.33;;;9.60;99.90;;;;;;6190648;23;20045;-79
2021/11/05 15:47:41;;;;;;;4.40;0.70;;;9.50;99.90;;;;;;6192722;23;20023;-80
2021/11/05 15:50:09;;;;;;;8.27;1.13;;;9.40;99.90;;;;;;6215984;23;20100;-81
2021/11/05 15:52:35;;;;;;;4.00;0.85;;;9.30;99.90;;;;;;6217652;23;20057;-82
2021/11/05 15:55:06;;;;;;;7.82;1.00;;;9.30;99.90;;;;;;6191292;23;20016;-80
2021/11/05 15:57:32;;;;;;;9.40;1.20;;;9.30;99.90;;;;;;6215240;23;20395;-78
2021/11/05 15:59:58;;;;;;;6.32;0.77;;;9.20;99.90;;;;;;6214724;23;20018;-76
2021/11/05 16:02:24;;;;;;;5.22;1.10;;;9.30;99.90;;;;;;6190008;23;20091;-77
2021/11/05 16:04:50;;;;;;;8.98;1.15;;;9.30;99.90;;;;;;6216408;23;20021;-77
2021/11/05 16:07:16;;;;;;;14.32;1.40;;;9.30;99.90;;;;;;6216561;23;20023;-77
2021/11/05 16:09:42;;;;;;;7.13;1.25;;;9.30;99.90;;;;;;6189875;23;20016;-77
2021/11/05 16:12:08;;;;;;;5.55;1.00;;;9.30;99.90;;;;;;6215656;23;20027;-76
2021/11/05 16:14:34;;;;;;;13.82;1.13;;;9.30;99.90;;;;;;6215479;23;20302;-77
2021/11/05 16:16:59;;;;;;;9.98;1.13;;;9.30;99.90;;;;;;6214934;23;20024;-76
2021/11/05 16:19:25;;;;;;;7.93;1.00;;;9.30;99.90;;;;;;6191033;23;20071;-78
2021/11/05 16:21:51;;;;;;;7.28;0.82;;;9.40;99.90;;;;;;6216124;23;20016;-78
2021/11/05 16:24:17;;;;;;;10.57;1.77;;;9.30;99.90;;;;;;6216255;23;20042;-79
2021/11/05 16:26:45;;;;;;;8.65;1.45;;;9.40;99.90;;;;;;6216447;23;20011;-78
2021/11/05 16:29:14;;;;;;;7.70;1.10;;;9.30;99.90;;;;;;6189103;23;20016;-78
2021/11/05 16:31:41;;;;;;;5.85;1.25;;;9.40;99.90;;;;;;6215196;23;20027;-78
2021/11/05 16:34:07;;;;;;;5.28;1.02;;;9.30;99.90;;;;;;6190095;23;20088;-76
2021/11/05 16:36:33;;;;;;;9.65;1.15;;;9.30;99.90;;;;;;6215881;23;20019;-77
2021/11/05 16:38:59;;;;;;;10.23;1.33;;;9.30;99.90;;;;;;6189425;23;20023;-75
2021/11/05 16:41:25;;;;;;;11.10;1.50;;;9.20;99.90;;;;;;6215034;23;20016;-76
2021/11/05 16:43:52;;;;;;;10.23;1.60;;;9.30;99.90;;;;;;6216815;23;20034;-77
2021/11/05 16:46:21;;;;;;;11.15;1.80;;;9.50;99.90;;;;;;6192064;23;20089;-77
2021/11/05 16:48:54;;;;;;;7.43;1.75;;;9.20;99.90;;;;;;6219835;23;20083;-81
2021/11/05 16:51:22;;;;;;;7.63;1.15;;;9.20;99.90;;;;;;6194788;23;20012;-80
2021/11/05 16:53:49;;;;;;;9.75;1.67;;;9.20;99.90;;;;;;6222530;23;20016;-80
2021/11/05 16:56:15;;;;;;;10.70;1.42;;;9.30;99.90;;;;;;6223268;23;20208;-76
2021/11/05 16:58:42;;;;;;;14.02;2.60;;;9.30;99.90;;;;;;6195070;23;20050;-77
2021/11/05 17:01:10;;;;;;;10.25;2.80;;;9.50;99.90;;;;;;6217000;23;20012;-78
2021/11/05 17:03:37;;;;;;;14.70;3.00;;;9.40;99.90;;;;;;6215170;23;20452;-77
2021/11/05 17:06:03;;;;;;;10.80;2.25;;;9.50;99.90;;;;;;6214699;23;20018;-75
2021/11/05 17:08:29;;;;;;;13.98;2.70;;;9.40;99.90;;;;;;6214605;23;20380;-75
2021/11/05 17:10:54;;;;;;;10.02;2.75;;;9.40;99.90;;;;;;6214863;23;20023;-79
2021/11/05 17:13:21;;;;;;;7.45;2.88;;;9.30;99.90;;;;;;6215172;23;20030;-78
2021/11/05 17:15:47;;;;;;;15.88;2.28;;;9.50;99.90;;;;;;6189764;23;20083;-78
2021/11/05 17:18:12;;;;;;;7.88;2.08;;;9.30;99.90;;;;;;6190124;23;20398;-80
2021/11/05 17:20:38;;;;;;;6.20;1.83;;;9.30;99.90;;;;;;6191013;23;20090;-78
2021/11/05 17:23:05;;;;;;;9.45;1.55;;;9.30;99.90;;;;;;6216658;23;20008;-78
2021/11/05 17:25:32;;;;;;;7.75;1.35;;;9.30;99.90;;;;;;6242938;23;20012;-80
2021/11/05 17:27:58;;;;;;;8.05;1.45;;;9.30;99.90;;;;;;6216992;23;20016;-77
2021/11/05 17:30:32;;;;;;;;;;;9.30;99.90;;;;;;6194206;23;20070;-80
2021/11/05 17:32:58;;;;;;;13.13;1.80;;;9.20;99.90;;;;;;6217643;23;19915;-78
2021/11/05 17:35:25;;;;;;;6.03;1.65;;;9.20;99.90;;;;;;6191664;23;20044;-79
2021/11/05 17:37:52;;;;;;;6.25;1.52;;;9.20;99.90;;;;;;6217202;23;20349;-80
2021/11/05 17:40:18;;;;;;;12.68;1.77;;;9.20;99.90;;;;;;6191363;23;20012;-77
2021/11/05 17:42:44;;;;;;;12.27;1.70;;;9.40;99.90;;;;;;6217074;23;20012;-78
2021/11/05 17:45:12;;;;;;;9.13;1.70;;;9.10;99.90;;;;;;6215865;23;20008;-80
2021/11/05 17:47:38;;;;;;;10.40;1.60;;;9.10;99.90;;;;;;6191974;23;20015;-76
2021/11/05 17:50:07;;;;;;;11.02;1.90;;;9.10;99.90;;;;;;6192140;23;20023;-77
2021/11/05 17:52:36;;;;;;;7.20;1.70;;;9.00;99.90;;;;;;6217715;23;20008;-79
2021/11/05 17:55:04;;;;;;;9.15;1.80;;;9.00;99.90;;;;;;6192033;23;20012;-81
2021/11/05 17:57:37;;;;;;;8.68;1.80;;;9.00;99.90;;;;;;6167380;23;20012;-82
2021/11/05 18:00:11;;;;;;;10.63;1.48;;;9.00;99.90;;;;;;6215306;23;20027;-76
2021/11/05 18:02:38;;;;;;;9.70;1.95;;;9.00;99.90;;;;;;6217230;23;20036;-78
2021/11/05 18:05:05;;;;;;;8.77;1.70;;;9.00;99.90;;;;;;6191914;23;20336;-77
2021/11/05 18:07:31;;;;;;;8.93;1.85;;;9.00;99.90;;;;;;6217071;23;20048;-79
2021/11/05 18:09:59;;;;;;;12.00;2.05;;;9.00;99.90;;;;;;6216244;23;20381;-77
2021/11/05 18:12:25;;;;;;;9.85;1.90;;;9.00;99.90;;;;;;6216939;23;20016;-77
2021/11/05 18:14:51;;;;;;;8.30;1.80;;;9.00;99.90;;;;;;6191500;23;20082;-77